Time;durP1;ratioP1;P1;durP2;ratioP2;P2;SDS_P1;SDS_P2;PMS_P1;PMS_P2;Temp;Humidity;BMP_temperature;BMP_pressure;BME280_temperature;BME280_humidity;BME280_pressure;Samples;Min_cycle;Max_cycle;Signal;HPM_P1;HPM_P2
2023/07/22 00:09:27;;;;;;;4.60;3.45;;;;;;;28.24;53.91;100620.50;21081381;28;20040;-69
2023/07/22 00:19:28;;;;;;;4.40;3.72;;;;;;;28.27;53.58;100622.63;21080664;28;20040;-68
2023/07/22 00:29:29;;;;;;;4.05;3.20;;;;;;;28.30;53.85;100621.13;21079586;28;20028;-68
2023/07/22 00:39:31;;;;;;;4.22;3.38;;;;;;;28.32;53.36;100618.81;21078529;28;20044;-68
2023/07/22 00:49:35;;;;;;;3.88;3.47;;;;;;;28.25;53.82;100613.69;21078922;28;20105;-68
2023/07/22 00:59:36;;;;;;;6.47;3.58;;;;;;;28.30;53.60;100621.13;21077384;28;20040;-68
2023/07/22 01:09:39;;;;;;;3.38;3.08;;;;;;;28.31;53.54;100612.31;21078890;28;20372;-68
2023/07/22 01:19:41;;;;;;;4.00;3.58;;;;;;;28.40;53.31;100634.00;21076796;28;20579;-68
2023/07/22 01:29:43;;;;;;;3.90;3.40;;;;;;;28.44;53.28;100643.41;21073590;28;20483;-67
2023/07/22 01:39:44;;;;;;;4.75;3.50;;;;;;;28.39;53.09;100638.00;21086478;28;20433;-69
2023/07/22 01:49:46;;;;;;;3.72;3.33;;;;;;;28.40;53.34;100653.69;21093694;28;20062;-68
2023/07/22 01:59:47;;;;;;;3.50;3.20;;;;;;;28.44;53.10;100665.94;21091349;28;20152;-68
2023/07/22 02:09:51;;;;;;;3.97;3.58;;;;;;;28.43;53.15;100669.91;21091621;28;20378;-68
2023/07/22 02:19:53;;;;;;;4.03;3.40;;;;;;;28.49;52.95;100668.56;21090467;28;20051;-70
2023/07/22 02:29:54;;;;;;;4.40;3.47;;;;;;;28.46;53.00;100669.25;21089171;28;20487;-68
2023/07/22 02:39:56;;;;;;;5.20;3.58;;;;;;;28.38;52.81;100653.22;21088279;28;20402;-68
2023/07/22 02:49:57;;;;;;;3.92;3.50;;;;;;;28.51;52.76;100669.06;21087170;28;20052;-68
2023/07/22 02:59:58;;;;;;;3.78;3.28;;;;;;;28.53;52.68;100661.09;21087647;28;20040;-68
2023/07/22 03:10:00;;;;;;;3.67;3.17;;;;;;;28.56;52.56;100680.13;21086580;28;20044;-68
2023/07/22 03:20:14;;;;;;;3.40;3.10;;;;;;;28.55;52.61;100676.47;21085598;28;20491;-68
2023/07/22 03:30:16;;;;;;;3.60;3.30;;;;;;;28.55;52.64;100684.09;21085083;28;20093;-68
2023/07/22 03:40:22;;;;;;;3.92;3.40;;;;;;;28.57;52.93;100687.41;21085780;28;20483;-68
2023/07/22 03:50:24;;;;;;;3.33;3.03;;;;;;;28.58;52.72;100689.84;21083435;28;20033;-68
2023/07/22 04:00:25;;;;;;;3.72;3.42;;;;;;;28.57;52.33;100699.47;21082328;28;20028;-68
2023/07/22 04:10:29;;;;;;;3.55;3.25;;;;;;;28.60;52.25;100721.31;21081641;28;20097;-68
2023/07/22 04:20:31;;;;;;;3.47;3.15;;;;;;;28.62;52.25;100718.16;21080837;28;20382;-68
2023/07/22 04:30:32;;;;;;;3.70;3.30;;;;;;;28.63;52.26;100731.06;21080325;28;20028;-67
2023/07/22 04:40:37;;;;;;;3.70;3.40;;;;;;;28.64;52.13;100724.28;21079615;28;20073;-68
2023/07/22 04:50:40;;;;;;;3.70;3.40;;;;;;;28.62;52.21;100718.16;21077670;28;20066;-68
2023/07/22 05:00:43;;;;;;;3.88;3.47;;;;;;;28.61;51.93;100725.78;21077939;28;20449;-69
2023/07/22 05:10:44;;;;;;;3.88;3.58;;;;;;;28.69;51.92;100749.44;21076782;28;20039;-68
2023/07/22 05:20:48;;;;;;;3.40;3.10;;;;;;;28.68;51.91;100744.94;21076344;28;20036;-68
2023/07/22 05:30:50;;;;;;;4.05;3.65;;;;;;;28.66;51.93;100740.84;21076887;28;20044;-69
2023/07/22 05:40:54;;;;;;;3.75;3.45;;;;;;;28.69;52.01;100757.06;21075699;28;20168;-69
2023/07/22 05:50:55;;;;;;;4.13;3.40;;;;;;;28.72;51.79;100737.47;21076019;28;20092;-68
2023/07/22 06:00:57;;;;;;;3.50;3.20;;;;;;;28.71;51.43;100738.66;21074725;28;20044;-69
2023/07/22 06:10:58;;;;;;;3.40;3.10;;;;;;;28.71;51.63;100738.66;21074232;28;20051;-68
2023/07/22 06:21:00;;;;;;;3.70;3.33;;;;;;;28.69;51.51;100734.53;21075843;28;20440;-68
2023/07/22 06:31:01;;;;;;;4.50;3.38;;;;;;;28.73;51.35;100722.25;21089811;28;20040;-68
2023/07/22 06:41:05;;;;;;;3.58;3.28;;;;;;;28.67;51.39;100711.50;21089309;28;20051;-68
2023/07/22 06:51:12;;;;;;;3.70;3.20;;;;;;;28.75;51.38;100721.91;21088080;28;20040;-69
2023/07/22 07:01:14;;;;;;;4.13;3.72;;;;;;;28.71;51.15;100724.56;21087084;28;20059;-68
2023/07/22 07:11:15;;;;;;;3.45;3.15;;;;;;;28.74;51.14;100721.09;21086619;28;20032;-68
2023/07/22 07:21:17;;;;;;;4.05;3.67;;;;;;;28.76;51.18;100721.56;21086392;28;20391;-69
2023/07/22 07:31:19;;;;;;;4.15;3.30;;;;;;;28.74;51.08;100726.72;21084757;28;20101;-69
2023/07/22 07:41:21;;;;;;;3.55;3.25;;;;;;;28.64;50.85;100715.84;21083873;28;20054;-68
2023/07/22 07:51:26;;;;;;;3.38;3.08;;;;;;;28.78;50.88;100724.06;21082949;28;20093;-68
2023/07/22 08:01:27;;;;;;;3.40;3.10;;;;;;;28.77;50.91;100723.25;21082607;28;20048;-69
2023/07/22 08:11:28;;;;;;;3.58;3.28;;;;;;;28.78;50.88;100727.69;21082339;28;20039;-69
2023/07/22 08:21:30;;;;;;;3.40;3.10;;;;;;;28.79;50.62;100734.97;21081124;28;20043;-69
2023/07/22 08:31:31;;;;;;;3.17;2.92;;;;;;;28.79;50.53;100734.97;21080682;28;20391;-69
2023/07/22 08:41:33;;;;;;;3.88;3.47;;;;;;;28.64;50.88;100710.22;21079770;28;20048;-68
2023/07/22 08:51:37;;;;;;;3.58;3.28;;;;;;;28.78;50.81;100744.59;21079081;28;20028;-68
2023/07/22 09:01:39;;;;;;;4.13;3.45;;;;;;;28.77;50.72;100737.31;21077628;28;20040;-69
2023/07/22 09:11:41;;;;;;;3.60;3.30;;;;;;;28.77;50.87;100759.00;21078138;28;20456;-68
2023/07/22 09:21:47;;;;;;;3.28;2.97;;;;;;;28.79;50.40;100763.13;21077174;28;20040;-69
2023/07/22 09:31:50;;;;;;;3.38;3.08;;;;;;;28.78;50.53;100767.13;21076602;28;20069;-69
2023/07/22 09:41:54;;;;;;;3.10;2.90;;;;;;;28.79;50.57;100770.75;21076093;28;20040;-69
2023/07/22 09:51:56;;;;;;;3.38;3.08;;;;;;;28.78;50.51;100772.75;21075860;28;20032;-68
2023/07/22 10:02:02;;;;;;;3.53;3.22;;;;;;;28.76;50.43;100791.97;21086946;28;20044;-67
2023/07/22 10:12:03;;;;;;;3.83;3.53;;;;;;;28.80;50.43;100804.19;21091553;28;20483;-69
2023/07/22 10:22:07;;;;;;;3.70;3.40;;;;;;;28.66;50.59;100797.97;21090646;28;20047;-68
2023/07/22 10:32:09;;;;;;;3.30;3.00;;;;;;;28.78;50.41;100823.44;21089603;28;20058;-69
2023/07/22 10:42:24;;;;;;;3.17;2.97;;;;;;;28.75;50.57;100829.75;21088643;28;20048;-68
2023/07/22 10:52:43;;;;;;;3.53;3.22;;;;;;;28.73;50.59;100831.25;21088073;28;20048;-67
2023/07/22 11:03:05;;;;;;;3.47;3.17;;;;;;;28.78;50.41;100834.72;21087585;28;20384;-67
2023/07/22 11:13:07;;;;;;;3.42;3.13;;;;;;;28.73;50.52;100843.34;21085403;28;20446;-68
2023/07/22 11:23:09;;;;;;;3.17;2.88;;;;;;;28.76;50.49;100865.19;21084989;28;20479;-68
2023/07/22 11:33:13;;;;;;;3.38;3.08;;;;;;;28.78;50.33;100878.94;21084436;28;20048;-67
2023/07/22 11:43:14;;;;;;;2.88;2.67;;;;;;;28.76;50.51;100898.16;21083658;28;20453;-68
2023/07/22 11:53:16;;;;;;;4.07;3.08;;;;;;;28.79;50.35;100915.22;21084102;28;20039;-68
2023/07/22 12:03:17;;;;;;;3.42;3.13;;;;;;;28.74;50.42;100906.94;21083072;28;20058;-68
2023/07/22 12:13:18;;;;;;;2.47;2.28;;;;;;;28.76;50.33;100924.31;21081654;28;20032;-69
2023/07/22 12:23:21;;;;;;;3.58;3.28;;;;;;;28.75;50.21;100914.22;21080640;28;20035;-69
2023/07/22 12:33:24;;;;;;;3.15;2.85;;;;;;;28.76;50.34;100915.03;21079132;28;20066;-69
2023/07/22 12:43:31;;;;;;;3.47;3.17;;;;;;;28.72;50.19;100908.44;21079094;28;20044;-69
2023/07/22 12:53:32;;;;;;;3.10;2.80;;;;;;;28.63;50.40;100891.56;21078524;28;20556;-68
2023/07/22 13:03:33;;;;;;;3.75;3.35;;;;;;;28.77;50.27;100905.44;21078545;28;20036;-68
2023/07/22 13:13:38;;;;;;;3.17;2.88;;;;;;;28.78;50.36;100926.81;21077035;28;20048;-68
2023/07/22 13:23:42;;;;;;;2.78;2.58;;;;;;;28.75;50.37;100919.84;21077117;28;20608;-69
2023/07/22 13:33:44;;;;;;;3.28;2.97;;;;;;;28.73;50.31;100925.00;21075467;28;20176;-68
2023/07/22 13:43:45;;;;;;;3.55;3.20;;;;;;;28.78;50.18;100922.00;21075288;28;20048;-68
2023/07/22 13:53:47;;;;;;;3.80;3.50;;;;;;;28.76;50.17;100915.88;21075888;28;20036;-67
2023/07/22 14:03:48;;;;;;;2.88;2.53;;;;;;;28.64;50.10;100907.31;21074678;28;20040;-69
2023/07/22 14:13:51;;;;;;;3.22;2.92;;;;;;;28.76;50.02;100932.75;21075002;28;20097;-69
2023/07/22 14:23:55;;;;;;;2.83;2.60;;;;;;;28.77;50.01;100934.44;21074289;28;20540;-69
2023/07/22 14:33:57;;;;;;;3.05;2.78;;;;;;;28.75;50.01;100931.13;21073074;28;20122;-69
2023/07/22 14:43:58;;;;;;;3.03;2.72;;;;;;;28.75;50.23;100936.75;21077390;28;20056;-68
2023/07/22 14:53:59;;;;;;;2.72;2.53;;;;;;;28.05;48.02;100943.56;21088278;28;20032;-70
2023/07/22 15:04:01;;;;;;;3.25;2.95;;;;;;;27.58;47.81;100948.88;21086745;28;20487;-69
2023/07/22 15:14:06;;;;;;;3.25;2.95;;;;;;;27.26;47.26;100942.53;21086338;28;20456;-68
2023/07/22 15:24:07;;;;;;;2.97;2.67;;;;;;;27.04;47.21;100940.56;21085898;28;20101;-68
2023/07/22 15:34:08;;;;;;;2.88;2.67;;;;;;;26.85;47.45;100932.38;21084479;28;20036;-68
2023/07/22 15:44:09;;;;;;;2.60;2.40;;;;;;;26.66;47.18;100926.13;21084075;28;20044;-69
2023/07/22 15:54:14;;;;;;;2.95;2.65;;;;;;;26.92;52.63;100903.00;21082640;28;20113;-69
2023/07/22 16:04:15;;;;;;;2.72;2.53;;;;;;;27.22;52.89;100899.38;21082782;28;20048;-68
2023/07/22 16:14:25;;;;;;;2.80;2.60;;;;;;;27.46;52.33;100906.53;21082122;28;20047;-68
2023/07/22 16:24:26;;;;;;;3.25;2.80;;;;;;;27.65;52.16;100887.41;21080455;28;20441;-68
2023/07/22 16:34:28;;;;;;;3.50;3.20;;;;;;;27.77;51.83;100886.81;21080100;28;20048;-68
2023/07/22 16:44:29;;;;;;;3.20;2.90;;;;;;;27.92;51.54;100886.31;21077903;28;20040;-68
2023/07/22 16:54:36;;;;;;;2.97;2.70;;;;;;;28.00;51.32;100887.47;21079089;28;20445;-68
2023/07/22 17:04:44;;;;;;;2.83;2.63;;;;;;;28.06;51.00;100877.69;21077467;28;20526;-69
2023/07/22 17:14:52;;;;;;;3.00;2.70;;;;;;;28.15;50.94;100886.16;21075668;28;20048;-68
2023/07/22 17:24:56;;;;;;;2.90;2.70;;;;;;;28.20;50.80;100872.72;21076421;28;20116;-69
2023/07/22 17:34:57;;;;;;;3.05;2.75;;;;;;;28.29;50.61;100875.53;21076714;28;20469;-68
2023/07/22 17:44:59;;;;;;;2.60;2.40;;;;;;;28.35;50.61;100877.84;21075804;28;20044;-67
2023/07/22 17:55:00;;;;;;;3.17;2.72;;;;;;;28.27;50.49;100859.00;21075751;28;20514;-67
2023/07/22 18:05:01;;;;;;;3.13;2.83;;;;;;;28.44;50.25;100891.09;21075114;28;20044;-68
2023/07/22 18:15:03;;;;;;;3.10;2.80;;;;;;;28.47;50.46;100884.81;21075054;28;20041;-67
2023/07/22 18:25:08;;;;;;;2.75;2.55;;;;;;;28.52;50.40;100898.72;21088744;28;20044;-67
2023/07/22 18:35:09;;;;;;;3.22;2.92;;;;;;;28.57;50.18;100882.47;21089779;28;20036;-68
2023/07/22 18:45:11;;;;;;;2.88;2.58;;;;;;;28.59;49.90;100879.28;21089387;28;20057;-69
2023/07/22 18:55:12;;;;;;;2.65;2.45;;;;;;;28.56;49.97;100863.91;21087006;28;20085;-67
2023/07/22 19:05:14;;;;;;;2.97;2.67;;;;;;;28.61;50.02;100857.28;21087676;28;20044;-68
2023/07/22 19:15:15;;;;;;;4.18;2.72;;;;;;;28.01;48.09;100858.19;21086955;28;20391;-68
2023/07/22 19:25:17;;;;;;;3.00;2.70;;;;;;;27.57;48.44;100857.28;21086317;28;20044;-68
2023/07/22 19:35:18;;;;;;;3.20;2.90;;;;;;;27.28;48.15;100867.16;21084096;28;20108;-68
2023/07/22 19:45:20;;;;;;;3.15;2.72;;;;;;;27.09;48.09;100863.78;21084223;28;20044;-68
2023/07/22 19:55:21;;;;;;;3.65;3.03;;;;;;;27.02;48.31;100874.63;21083889;28;20105;-68
2023/07/22 20:05:23;;;;;;;3.00;2.65;;;;;;;26.90;48.21;100871.63;21082945;28;20028;-68
2023/07/22 20:15:24;;;;;;;3.53;3.00;;;;;;;26.78;47.88;100866.59;21082256;28;20055;-68
2023/07/22 20:25:29;;;;;;;3.95;3.35;;;;;;;26.67;48.22;100863.25;21082065;28;20036;-68
2023/07/22 20:35:30;;;;;;;3.30;3.00;;;;;;;26.57;47.96;100869.13;21081269;28;20380;-69
2023/07/22 20:45:32;;;;;;;3.17;2.88;;;;;;;26.29;47.97;100855.22;21079785;28;20048;-67
2023/07/22 20:55:34;;;;;;;3.20;2.78;;;;;;;26.36;48.17;100875.25;21078814;28;20048;-68
2023/07/22 21:05:35;;;;;;;3.42;3.13;;;;;;;26.31;47.87;100864.16;21077365;28;20044;-68
2023/07/22 21:15:37;;;;;;;3.90;3.50;;;;;;;26.62;53.02;100860.59;21078292;28;20564;-67
2023/07/22 21:25:38;;;;;;;3.30;2.90;;;;;;;26.95;52.91;100860.25;21077429;28;20398;-67
2023/07/22 21:35:39;;;;;;;3.50;3.20;;;;;;;27.07;52.39;100835.16;21076734;28;20032;-68
2023/07/22 21:45:41;;;;;;;3.45;2.92;;;;;;;27.32;51.70;100842.88;21076591;28;20032;-68
2023/07/22 21:55:42;;;;;;;3.20;2.90;;;;;;;27.48;51.45;100836.78;21084112;28;20375;-68
2023/07/22 22:05:43;;;;;;;3.45;3.15;;;;;;;27.60;51.52;100845.41;21091879;28;20040;-67
2023/07/22 22:15:45;;;;;;;3.50;3.17;;;;;;;27.70;51.06;100858.31;21091798;28;20432;-67
2023/07/22 22:25:46;;;;;;;4.03;2.80;;;;;;;27.77;51.17;100845.44;21090065;28;20093;-68
2023/07/22 22:35:48;;;;;;;3.40;2.97;;;;;;;27.78;51.04;100833.03;21090097;28;20044;-67
2023/07/22 22:45:49;;;;;;;3.42;3.13;;;;;;;27.96;50.69;100852.72;21089092;28;20483;-68
2023/07/22 22:55:51;;;;;;;3.85;2.50;;;;;;;28.00;50.61;100871.44;21088710;28;20102;-68
2023/07/22 23:05:52;;;;;;;3.10;2.80;;;;;;;28.03;50.31;100876.38;21087607;28;20462;-68
2023/07/22 23:15:54;;;;;;;3.08;2.78;;;;;;;28.05;50.35;100876.06;21087191;28;20040;-68
2023/07/22 23:25:55;;;;;;;3.38;2.80;;;;;;;28.16;50.03;100880.16;21085485;28;20044;-68
2023/07/22 23:36:02;;;;;;;3.00;2.70;;;;;;;28.22;50.08;100884.47;21085193;28;20039;-68
2023/07/22 23:46:03;;;;;;;3.17;2.87;;;;;;;28.22;50.20;100884.47;21084157;28;20105;-68
2023/07/22 23:56:05;;;;;;;3.30;3.00;;;;;;;28.09;50.01;100865.81;21083818;28;20032;-68
